METAR Data
IDs: Format: Raw Decoded Include TAF

Data at: 0545 UTC 03 Jul 2022

EGPH 030520Z 25007KT 9999 BKN012 13/11 Q1013
EGPH 030450Z 24008KT 9999 BKN011 13/11 Q1013
EGPH 030420Z 25006KT 9999 OVC012 13/11 Q1013
EGPH 030320Z 25006KT 9999 BKN012 13/10 Q1013
EGPH 030250Z 25004KT 9999 BKN011 12/10 Q1013
EGPH 030220Z 24006KT 9999 FEW011 SCT030 BKN043 12/10 Q1013
EGPH 030150Z 24007KT 9999 BKN043 12/09 Q1013
EGPH 030120Z 25008KT 9999 FEW017 12/09 Q1013
EGPH 030050Z 24008KT 9999 FEW016 12/10 Q1013
EGPH 030020Z 25009KT 9999 FEW017 13/10 Q1013
EGPH 022350Z 25008KT CAVOK 13/10 Q1013
EGPH 022320Z 25009KT 9999 FEW017 SCT046 13/10 Q1013
EGPH 022250Z 24009KT 9999 FEW021 OVC048 14/10 Q1013
EGPH 022220Z 25008KT 9999 SCT033 BKN049 14/09 Q1012
EGPH 022150Z 25010KT 9999 BKN034 14/09 Q1012
EGPH 022120Z 25006KT 9999 BKN046 14/10 Q1012
EGPH 022050Z 26006KT 9999 SCT038 14/09 Q1012
EGPH 022020Z 25008KT 230V290 9999 SCT038 15/09 Q1012
EGPH 021950Z 26009KT 9999 FEW025 15/09 Q1011
EGPH 021920Z 26011KT 9999 FEW025 16/10 Q1011
EGPH 021850Z 25013KT 230V290 9999 SCT022 17/10 Q1011
EGPH 021820Z 24015KT 9999 SCT021 16/11 Q1010
EGPH 021750Z 24015KT 9999 SCT019 17/11 Q1010
EGPH 021720Z 24018KT 9999 BKN022 16/11 Q1010
EGPH 021650Z 23018KT 9999 SCT024 17/11 Q1010
EGPH 021620Z 24018KT 9999 SCT024 17/11 Q1010
EGPH 021550Z 24017KT 9999 SCT024 17/11 Q1010
EGPH 021520Z 24018KT 9999 BKN025 18/11 Q1010
EGPH 021450Z 26012KT 9999 BKN030 17/10 Q1010
EGPH 021420Z 25014KT 9999 BKN027 17/10 Q1010
EGPH 021350Z 26013KT 9999 BKN029 17/10 Q1010
EGPH 021320Z 25014KT 9999 SCT030 18/10 Q1010
EGPH 021250Z 25014G24KT 9999 SCT028 17/10 Q1010
EGPH 021220Z 24017KT 9999 FEW021 17/10 Q1010
EGPH 021150Z 25011KT 9999 SCT018 SCT045 15/12 Q1010
EGPH 021120Z 26011KT 9999 8000W VCSH SCT023 16/10 Q1010
EGPH 021050Z 24015KT 9999 SCT022 SCT040 16/10 Q1010
EGPH 021020Z 24014KT 9999 SCT022 SCT037 16/10 Q1010
EGPH 020950Z 24016KT 9999 SCT021 SCT034 15/10 Q1010
EGPH 020920Z 23013KT 9999 SCT021 SCT032 16/11 Q1010
EGPH 020850Z 23013KT 9999 SCT019 15/11 Q1010
EGPH 020820Z 24015KT 9999 SCT020 SCT034 15/11 Q1009
EGPH 020750Z 24012KT 9999 FEW016 SCT047 14/11 Q1009
EGPH 020720Z 24011KT 9999 FEW030 BKN047 13/11 Q1009
EGPH 020650Z 23010KT 9999 FEW030 BKN045 13/11 Q1009
EGPH 020620Z 25008KT 9999 FEW020 BKN047 13/11 Q1009
EGPH 020550Z 23007KT 9999 -RA FEW037 12/11 Q1009
EGPH 020520Z 22005KT 9000 -RA FEW041 12/12 Q1009
EGPH 020450Z 00000KT 8000 -RA FEW034 12/11 Q1009
EGPH 020420Z VRB02KT 5000 -RA FEW013 SCT019 BKN033 12/11 Q1009
EGPH 020350Z 07002KT 9999 -RA BKN017 12/11 Q1009
EGPH 020320Z 06004KT 9999 -RA SCT023 BKN035 12/11 Q1008
EGPH 020250Z 04004KT 9999 -RA FEW017 BKN029 12/11 Q1008
EGPH 020220Z 06004KT 9999 OVC018 12/11 Q1009
EGPH 020150Z 06005KT 9999 -RA OVC020 11/11 Q1009
EGPH 020120Z 04003KT 9999 -RA BKN022 OVC034 12/11 Q1009
EGPH 020020Z 07005KT 060V120 9999 -RA OVC022 11/10 Q1010
EGPH 012350Z 07003KT 9999 -RA BKN030 OVC045 11/10 Q1010
EGPH 012320Z VRB02KT CAVOK 12/10 Q1010
EGPH 012250Z 01002KT CAVOK 11/09 Q1010
EGPH 012220Z 22003KT 190V260 CAVOK 12/09 Q1010
EGPH 012150Z 20007KT CAVOK 13/09 Q1011
EGPH 012120Z 20006KT CAVOK 13/09 Q1011
EGPH 012050Z 22004KT 9999 FEW038 14/11 Q1011
EGPH 012020Z VRB02KT 9999 FEW037 13/12 Q1011
EGPH 011950Z 30002KT 9999 FEW047 13/12 Q1011
EGPH 011920Z 28001KT 9999 VCSH FEW019CB 13/12 Q1011 RESHRA
EGPH 011850Z 24012KT 5000 SHRA FEW016CB 13/11 Q1011
EGPH 011820Z 20011KT 9999 -SHRA FEW035CB 18/09 Q1010
EGPH 011750Z 25010KT 9999 FEW029CB 18/08 Q1010